Terminal Aerodrome Forecast
Issued by NWS

Home | Current Version | Previous Version | Graphics & Text | Print | Product List | Glossary On
Versions: 1 2 3 4 5 6 7 8 9 10 11 12 13 14 15 16 17 18 19 20
000
FTUS43 KABR 251500 AAB
TAFATY
TAF AMD
KATY 251519Z 2515/2612 36008KT 1 1/2SM -SN BR FEW006 OVC030
     FM251600 01007KT 3SM -SN BR OVC020
      TEMPO 2516/2518 1/2SM SN FZFG BKN010 OVC020
     FM252000 01012KT 6SM BR OVC015=

USA.gov is the U.S. government's official web portal to all federal, state and local government web resources and services.